Time;durP1;ratioP1;P1;durP2;ratioP2;P2;SDS_P1;SDS_P2;PMS_P1;PMS_P2;Temp;Humidity;BMP_temperature;BMP_pressure;BME280_temperature;BME280_humidity;BME280_pressure;Samples;Min_cycle;Max_cycle;Signal;HPM_P1;HPM_P2
2022/01/14 00:01:04;;;;;;;57.90;23.17;;;4.40;99.90;;;;;;5117581;28;20084;-73
2022/01/14 00:03:30;;;;;;;57.53;23.13;;;4.40;99.90;;;;;;5116149;28;20048;-74
2022/01/14 00:05:56;;;;;;;63.87;24.17;;;4.30;99.90;;;;;;5117393;27;20491;-74
2022/01/14 00:08:22;;;;;;;52.00;22.90;;;4.30;99.90;;;;;;5116101;28;20111;-73
2022/01/14 00:10:49;;;;;;;58.83;24.80;;;4.30;99.90;;;;;;5116366;28;20491;-72
2022/01/14 00:13:47;;;;;;;60.40;24.70;;;4.30;99.90;;;;;;5099361;28;20035;-72
2022/01/14 00:16:13;;;;;;;59.47;23.67;;;4.30;99.90;;;;;;5103071;28;20518;-72
2022/01/14 00:18:39;;;;;;;57.60;23.43;;;4.20;99.90;;;;;;5117264;28;20020;-72
2022/01/14 00:21:05;;;;;;;65.67;21.83;;;4.30;99.90;;;;;;5115916;28;20020;-72
2022/01/14 00:23:35;;;;;;;54.23;22.37;;;4.30;99.90;;;;;;5117191;28;20413;-71
2022/01/14 00:34:25;;;;;;;63.85;21.75;;;4.30;99.90;;;;;;5104172;28;19908;-72
2022/01/14 00:36:50;;;;;;;65.00;24.10;;;4.30;99.90;;;;;;5116934;28;20106;-72
2022/01/14 00:39:16;;;;;;;57.00;21.87;;;4.30;99.90;;;;;;5116881;28;20031;-72
2022/01/14 00:41:44;;;;;;;58.33;24.40;;;4.30;99.90;;;;;;5098649;28;20024;-72
2022/01/14 00:44:16;;;;;;;65.03;23.43;;;4.30;99.90;;;;;;5115381;28;20043;-72
2022/01/14 00:46:44;;;;;;;59.97;24.00;;;4.30;99.90;;;;;;5116729;28;20034;-72
2022/01/14 00:49:11;;;;;;;60.07;23.77;;;4.30;99.90;;;;;;5116695;28;20102;-72
2022/01/14 00:51:37;;;;;;;57.30;24.57;;;4.40;99.90;;;;;;5116749;28;20023;-72
2022/01/14 00:54:04;;;;;;;68.00;25.83;;;4.40;99.90;;;;;;5115319;28;20027;-72
2022/01/14 00:56:44;;;;;;;73.77;25.63;;;4.50;99.90;;;;;;5116499;28;20111;-72
2022/01/14 00:59:15;;;;;;;66.07;24.53;;;4.40;99.90;;;;;;5116487;28;20020;-72
2022/01/14 01:01:49;;;;;;;58.50;23.83;;;4.40;99.90;;;;;;5115437;28;20047;-72
2022/01/14 01:04:29;;;;;;;65.27;27.13;;;4.40;99.90;;;;;;5114865;28;20377;-72
2022/01/14 01:06:56;;;;;;;68.77;27.30;;;4.40;99.90;;;;;;5116357;28;20036;-72
2022/01/14 01:09:24;;;;;;;66.77;27.13;;;4.40;99.90;;;;;;5098061;28;20076;-72
2022/01/14 01:12:39;;;;;;;69.43;26.13;;;4.40;99.90;;;;;;5114275;28;20115;-72
2022/01/14 01:14:46;;;;;;;63.70;24.53;;;4.40;99.90;;;;;;5102579;28;20027;-72
2022/01/14 01:17:13;;;;;;;70.63;25.87;;;4.50;99.90;;;;;;5115014;28;20028;-72
2022/01/14 01:19:39;;;;;;;58.73;23.07;;;4.40;99.90;;;;;;5114787;28;20096;-72
2022/01/14 01:22:05;;;;;;;59.20;24.83;;;4.50;99.90;;;;;;5098166;28;20027;-72
2022/01/14 01:24:30;;;;;;;57.40;24.03;;;4.40;99.90;;;;;;5115982;28;20028;-72
2022/01/14 01:26:57;;;;;;;55.73;24.23;;;4.50;99.90;;;;;;5114653;28;20103;-72
2022/01/14 01:31:49;;;;;;;57.20;24.43;;;4.50;99.90;;;;;;5116359;28;20118;-72
2022/01/14 01:34:20;;;;;;;64.40;24.57;;;4.50;99.90;;;;;;5114590;28;20024;-72
2022/01/14 01:36:50;;;;;;;58.10;25.00;;;4.50;99.90;;;;;;5114530;28;20031;-72
2022/01/14 01:39:19;;;;;;;64.63;26.67;;;4.50;99.90;;;;;;5115747;28;20035;-72
2022/01/14 01:41:56;;;;;;;65.67;26.73;;;4.50;99.90;;;;;;5115529;28;20494;-72
2022/01/14 01:44:24;;;;;;;60.00;25.27;;;4.50;99.90;;;;;;5115619;28;20368;-73
2022/01/14 01:46:52;;;;;;;59.00;24.60;;;4.50;99.90;;;;;;5115625;27;20024;-72
2022/01/14 01:49:20;;;;;;;62.40;26.03;;;4.50;99.90;;;;;;5115643;28;20080;-72
2022/01/14 01:51:48;;;;;;;57.67;25.30;;;4.50;99.90;;;;;;5115506;28;20432;-72
2022/01/14 01:54:14;;;;;;;58.70;24.60;;;4.50;99.90;;;;;;5114268;28;20107;-72
2022/01/14 01:56:40;;;;;;;64.30;24.67;;;4.50;99.90;;;;;;5114365;28;20085;-72
2022/01/14 01:59:09;;;;;;;58.73;24.77;;;4.50;99.90;;;;;;5097005;28;20063;-72
2022/01/14 02:01:35;;;;;;;60.63;24.90;;;4.50;99.90;;;;;;5097345;28;20030;-72
2022/01/14 02:04:01;;;;;;;62.40;24.63;;;4.50;99.90;;;;;;5113802;28;20499;-72
2022/01/14 02:06:26;;;;;;;63.57;24.30;;;4.50;99.90;;;;;;5113739;28;20028;-72
2022/01/14 02:08:52;;;;;;;59.63;23.70;;;4.60;99.90;;;;;;5115225;28;20052;-72
2022/01/14 02:11:18;;;;;;;51.83;23.37;;;4.60;99.90;;;;;;5115088;28;20107;-72
2022/01/14 02:13:44;;;;;;;51.97;22.63;;;4.60;99.90;;;;;;5114956;28;20027;-72
2022/01/14 02:16:18;;;;;;;60.43;24.63;;;4.50;99.90;;;;;;5113775;28;20028;-72
2022/01/14 02:24:21;;;;;;;58.07;23.57;;;4.50;99.90;;;;;;5114003;28;20066;-72
2022/01/14 02:26:52;;;;;;;62.40;23.80;;;4.50;99.90;;;;;;5114931;28;20028;-72
2022/01/14 02:29:21;;;;;;;54.90;22.97;;;4.50;99.90;;;;;;5113548;28;20015;-72
2022/01/14 02:31:47;;;;;;;63.37;24.00;;;4.50;99.90;;;;;;5114758;28;20051;-72
2022/01/14 02:34:14;;;;;;;66.67;25.50;;;4.50;99.90;;;;;;5114562;28;20119;-72
2022/01/14 02:36:44;;;;;;;64.90;25.37;;;4.50;99.90;;;;;;5114474;28;20379;-72
2022/01/14 02:39:12;;;;;;;64.90;24.83;;;4.50;99.90;;;;;;5096172;28;20051;-72
2022/01/14 02:41:40;;;;;;;59.20;24.47;;;4.50;99.90;;;;;;5114562;28;20030;-72
2022/01/14 02:44:24;;;;;;;60.37;24.83;;;4.40;99.90;;;;;;5114378;28;20024;-72
2022/01/14 02:46:56;;;;;;;54.10;23.92;;;4.40;99.90;;;;;;5114450;28;20016;-72
2022/01/14 02:49:26;;;;;;;59.83;25.77;;;4.40;99.90;;;;;;5113163;28;20024;-72
2022/01/14 02:51:52;;;;;;;56.83;23.47;;;4.30;99.90;;;;;;5114458;28;20023;-72
2022/01/14 02:54:23;;;;;;;59.60;23.57;;;4.30;99.90;;;;;;5112928;28;20058;-73
2022/01/14 02:56:53;;;;;;;53.93;23.83;;;4.30;99.90;;;;;;5113151;28;20030;-72
2022/01/14 02:59:21;;;;;;;53.27;22.23;;;4.20;99.90;;;;;;5114331;28;20036;-72
2022/01/14 03:01:48;;;;;;;50.57;22.33;;;4.30;99.90;;;;;;5112800;28;20023;-72
2022/01/14 03:04:17;;;;;;;54.57;22.97;;;4.20;99.90;;;;;;5113921;28;20046;-72
2022/01/14 03:06:43;;;;;;;51.67;23.07;;;4.30;99.90;;;;;;5114104;28;20019;-72
2022/01/14 03:09:09;;;;;;;49.80;21.57;;;4.30;99.90;;;;;;5112785;28;20020;-72
2022/01/14 03:11:40;;;;;;;53.63;23.67;;;4.30;99.90;;;;;;5113025;28;20069;-72
2022/01/14 03:14:08;;;;;;;59.73;21.70;;;4.20;99.90;;;;;;5113934;28;20023;-72
2022/01/14 03:16:39;;;;;;;52.17;21.43;;;4.20;99.90;;;;;;5112828;28;20027;-72
2022/01/14 03:19:11;;;;;;;50.83;22.90;;;4.30;99.90;;;;;;5096389;28;20031;-72
2022/01/14 03:21:40;;;;;;;48.40;21.27;;;4.20;99.90;;;;;;5113887;28;20080;-73
2022/01/14 03:26:52;;;;;;;51.47;23.53;;;4.20;99.90;;;;;;5114262;28;20034;-72
2022/01/14 03:29:18;;;;;;;57.03;23.23;;;4.20;99.90;;;;;;5112685;28;20030;-72
2022/01/14 03:31:46;;;;;;;54.47;22.20;;;4.20;99.90;;;;;;5112246;28;20062;-72
2022/01/14 03:34:12;;;;;;;55.47;23.37;;;4.20;99.90;;;;;;5113362;28;20514;-72
2022/01/14 03:36:38;;;;;;;62.47;23.00;;;4.20;99.90;;;;;;5112279;28;20024;-72
2022/01/14 03:39:05;;;;;;;62.40;23.43;;;4.20;99.90;;;;;;5095585;28;20170;-72
2022/01/14 03:41:30;;;;;;;57.73;24.30;;;4.30;99.90;;;;;;5113562;28;20034;-73
2022/01/14 03:43:56;;;;;;;52.90;23.87;;;4.20;99.90;;;;;;5112179;28;20031;-73
2022/01/14 03:46:22;;;;;;;59.90;24.73;;;4.20;99.90;;;;;;5113713;28;20025;-73
2022/01/14 03:48:47;;;;;;;56.40;24.30;;;4.20;99.90;;;;;;5113461;28;20015;-72
2022/01/14 03:51:13;;;;;;;57.47;24.83;;;4.20;99.90;;;;;;5113519;28;20024;-72
2022/01/14 03:53:39;;;;;;;60.33;24.23;;;4.20;99.90;;;;;;5113501;28;20437;-73
2022/01/14 03:56:06;;;;;;;56.13;24.00;;;4.20;99.90;;;;;;5113602;28;20019;-72
2022/01/14 03:58:31;;;;;;;50.77;23.03;;;4.20;99.90;;;;;;5095282;28;20069;-72
2022/01/14 04:00:57;;;;;;;68.07;25.27;;;4.20;99.90;;;;;;5112274;28;20024;-72
2022/01/14 04:03:23;;;;;;;65.50;24.87;;;4.20;99.90;;;;;;5111969;28;20453;-72
2022/01/14 04:05:48;;;;;;;71.53;27.23;;;4.20;99.90;;;;;;5113380;28;20365;-73
2022/01/14 04:08:14;;;;;;;76.30;28.17;;;4.20;99.90;;;;;;5113290;28;20024;-72
2022/01/14 04:10:40;;;;;;;58.20;26.03;;;4.10;99.90;;;;;;5113370;28;20024;-72
2022/01/14 04:13:14;;;;;;;55.17;24.30;;;4.10;99.90;;;;;;5112074;28;20028;-72
2022/01/14 04:15:45;;;;;;;57.95;23.20;;;4.20;99.90;;;;;;5113393;28;20503;-72
2022/01/14 04:18:18;;;;;;;64.13;25.63;;;4.10;99.90;;;;;;5095917;28;20433;-72
2022/01/14 04:20:47;;;;;;;61.53;24.13;;;4.20;99.90;;;;;;5113177;28;20023;-73
2022/01/14 04:23:14;;;;;;;69.87;26.43;;;4.20;99.90;;;;;;5112234;28;20472;-72
2022/01/14 04:25:41;;;;;;;79.30;26.27;;;4.20;99.90;;;;;;5113143;28;20028;-72
2022/01/14 04:28:07;;;;;;;65.43;24.90;;;4.10;99.90;;;;;;5112005;28;20027;-72
2022/01/14 04:30:34;;;;;;;61.57;23.97;;;4.10;99.90;;;;;;5113067;28;20076;-72
2022/01/14 04:33:02;;;;;;;73.27;25.47;;;4.10;99.90;;;;;;5113331;28;20020;-72
2022/01/14 04:35:28;;;;;;;74.77;25.07;;;4.20;99.90;;;;;;5111864;28;20528;-73
2022/01/14 04:37:54;;;;;;;64.67;24.47;;;4.20;99.90;;;;;;5111874;28;20036;-72
2022/01/14 04:40:20;;;;;;;66.47;24.90;;;4.20;99.90;;;;;;5111910;28;20102;-72
2022/01/14 04:42:46;;;;;;;77.80;26.37;;;4.20;99.90;;;;;;5113359;28;20038;-72
2022/01/14 04:45:25;;;;;;;63.77;24.47;;;4.20;99.90;;;;;;5094859;28;20123;-72
2022/01/14 04:47:51;;;;;;;68.60;24.47;;;4.30;99.90;;;;;;5116238;28;20361;-72
2022/01/14 04:50:18;;;;;;;68.00;24.57;;;4.20;99.90;;;;;;5115434;28;20118;-72
2022/01/14 04:52:46;;;;;;;60.93;21.97;;;4.20;99.90;;;;;;5116579;28;20064;-72
2022/01/14 04:55:14;;;;;;;54.40;22.53;;;4.20;99.90;;;;;;5116645;28;20100;-72
2022/01/14 04:57:40;;;;;;;59.97;22.03;;;4.20;99.90;;;;;;5116713;27;20387;-72
2022/01/14 05:00:12;;;;;;;62.47;23.40;;;4.20;99.90;;;;;;5098381;28;20028;-72
2022/01/14 05:02:38;;;;;;;66.50;23.83;;;4.30;99.90;;;;;;5116226;28;20040;-72
2022/01/14 05:05:06;;;;;;;59.00;24.43;;;4.30;99.90;;;;;;5115033;28;20170;-72
2022/01/14 05:07:32;;;;;;;75.23;26.70;;;4.20;99.90;;;;;;5098136;28;20034;-72
2022/01/14 05:12:29;;;;;;;59.23;25.10;;;4.30;99.90;;;;;;5115456;28;20032;-72
2022/01/14 05:14:55;;;;;;;62.13;24.73;;;4.20;99.90;;;;;;5114945;28;20030;-72
2022/01/14 05:17:21;;;;;;;67.90;24.30;;;4.20;99.90;;;;;;5114863;28;20027;-72
2022/01/14 05:19:47;;;;;;;64.07;23.23;;;4.30;99.90;;;;;;5115299;28;20032;-72
2022/01/14 05:22:13;;;;;;;55.57;23.13;;;4.30;99.90;;;;;;5116032;28;20105;-72
2022/01/14 05:24:38;;;;;;;60.93;23.43;;;4.20;99.90;;;;;;5115989;28;20056;-72
2022/01/14 05:27:04;;;;;;;62.73;22.20;;;4.30;99.90;;;;;;5115930;28;20026;-72
2022/01/14 05:29:30;;;;;;;63.37;22.00;;;4.20;99.90;;;;;;5116004;27;20032;-72
2022/01/14 05:32:08;;;;;;;56.93;23.13;;;4.30;99.90;;;;;;5111210;28;20391;-72
2022/01/14 05:34:35;;;;;;;54.70;22.33;;;4.30;99.90;;;;;;5115393;28;20464;-72
2022/01/14 05:37:03;;;;;;;57.50;21.27;;;4.30;99.90;;;;;;5110524;28;20042;-72
2022/01/14 05:39:29;;;;;;;48.13;21.40;;;4.30;99.90;;;;;;5115334;28;20027;-72
2022/01/14 05:41:55;;;;;;;60.03;21.63;;;4.30;99.90;;;;;;5110934;28;20094;-72
2022/01/14 05:44:24;;;;;;;61.63;22.60;;;4.40;99.90;;;;;;5113036;28;20031;-72
2022/01/14 05:46:51;;;;;;;53.93;20.37;;;4.40;99.90;;;;;;5115161;27;20028;-72
2022/01/14 05:49:17;;;;;;;59.97;20.67;;;4.40;99.90;;;;;;5091766;28;20028;-72
2022/01/14 05:51:45;;;;;;;53.57;21.87;;;4.40;99.90;;;;;;5092294;28;20036;-72
2022/01/14 05:54:11;;;;;;;58.63;21.87;;;4.40;99.90;;;;;;5092382;28;20487;-72
2022/01/14 05:56:37;;;;;;;59.20;20.43;;;4.40;99.90;;;;;;5107888;28;20035;-72
2022/01/14 05:59:03;;;;;;;50.70;21.23;;;4.40;99.90;;;;;;5114765;28;20024;-72
2022/01/14 06:01:32;;;;;;;54.80;21.77;;;4.40;99.90;;;;;;5095779;28;20114;-72
2022/01/14 06:03:59;;;;;;;52.10;19.40;;;4.40;99.90;;;;;;5112643;28;20552;-72
2022/01/14 06:06:25;;;;;;;51.77;20.40;;;4.40;99.90;;;;;;5115422;28;20030;-72
2022/01/14 06:08:51;;;;;;;54.13;20.27;;;4.50;99.90;;;;;;5113609;28;20468;-72
2022/01/14 06:11:17;;;;;;;52.17;20.00;;;4.40;99.90;;;;;;5113270;28;20076;-72
2022/01/14 06:13:43;;;;;;;48.60;21.17;;;4.40;99.90;;;;;;5113620;28;20020;-72
2022/01/14 06:16:09;;;;;;;100.37;24.77;;;4.50;99.90;;;;;;5113567;28;20462;-72
2022/01/14 06:18:34;;;;;;;49.07;22.13;;;4.50;99.90;;;;;;5113781;28;20426;-72
2022/01/14 06:21:00;;;;;;;59.80;21.20;;;4.50;99.90;;;;;;5114870;28;20476;-72
2022/01/14 06:23:26;;;;;;;57.23;21.43;;;4.50;99.90;;;;;;5114955;28;20028;-72
2022/01/14 06:25:51;;;;;;;51.50;21.03;;;4.50;99.90;;;;;;5114593;28;20361;-72
2022/01/14 06:28:17;;;;;;;45.60;19.63;;;4.50;99.90;;;;;;5114824;28;20074;-72
2022/01/14 06:30:43;;;;;;;56.30;20.93;;;4.50;99.90;;;;;;5113336;28;20038;-72
2022/01/14 06:33:08;;;;;;;45.17;22.17;;;4.50;99.90;;;;;;5113205;28;20164;-72
2022/01/14 06:35:34;;;;;;;54.83;21.70;;;4.40;99.90;;;;;;5096219;28;20050;-72
2022/01/14 06:38:00;;;;;;;56.57;20.67;;;4.40;99.90;;;;;;5114456;28;20373;-72
2022/01/14 06:40:27;;;;;;;73.10;23.13;;;4.40;99.90;;;;;;5112792;28;20130;-72
2022/01/14 06:42:53;;;;;;;64.47;21.77;;;4.50;99.90;;;;;;5111105;28;20036;-72
2022/01/14 06:45:19;;;;;;;64.27;22.53;;;4.40;99.90;;;;;;5077798;28;20402;-73
2022/01/14 06:47:45;;;;;;;47.40;20.77;;;4.40;99.90;;;;;;5112144;28;20111;-72
2022/01/14 06:50:11;;;;;;;51.13;22.13;;;4.40;99.90;;;;;;5113680;28;20118;-72
2022/01/14 06:52:36;;;;;;;47.07;20.23;;;4.40;99.90;;;;;;5087134;28;20032;-72
2022/01/14 06:55:03;;;;;;;54.83;22.23;;;4.50;99.90;;;;;;5087261;28;20032;-72
2022/01/14 06:57:28;;;;;;;53.70;22.33;;;4.50;99.90;;;;;;5087117;28;20035;-72
2022/01/14 06:59:54;;;;;;;64.67;21.47;;;4.40;99.90;;;;;;5113810;28;20034;-73
2022/01/14 07:02:20;;;;;;;50.27;21.33;;;4.50;99.90;;;;;;5113398;28;20044;-73
2022/01/14 07:04:45;;;;;;;54.40;21.60;;;4.40;99.90;;;;;;5095361;28;20051;-72
2022/01/14 07:07:11;;;;;;;53.43;19.67;;;4.50;99.90;;;;;;5114027;28;20035;-72
2022/01/14 07:09:55;;;;;;;49.80;20.33;;;4.50;99.90;;;;;;5112014;28;20502;-73
2022/01/14 07:12:31;;;;;;;55.28;20.35;;;4.50;99.90;;;;;;5113579;28;20113;-73
2022/01/14 07:14:57;;;;;;;55.23;20.50;;;4.50;99.90;;;;;;5112259;28;20234;-72
2022/01/14 07:17:23;;;;;;;55.70;21.33;;;4.40;99.90;;;;;;5111954;28;20047;-73
2022/01/14 07:19:52;;;;;;;50.43;20.50;;;4.50;99.90;;;;;;5111548;28;20507;-72
2022/01/14 07:22:18;;;;;;;53.07;21.17;;;4.40;99.90;;;;;;5111169;28;20114;-72
2022/01/14 07:24:44;;;;;;;50.67;21.33;;;4.40;99.90;;;;;;5111852;28;20038;-72
2022/01/14 07:27:10;;;;;;;57.63;20.83;;;4.40;99.90;;;;;;5113042;28;20032;-73
2022/01/14 07:29:36;;;;;;;53.70;20.60;;;4.40;99.90;;;;;;5095029;28;20076;-73
2022/01/14 07:32:02;;;;;;;61.50;20.73;;;4.40;99.90;;;;;;5111704;28;20063;-72
2022/01/14 07:34:28;;;;;;;58.83;23.00;;;4.40;99.90;;;;;;5113662;28;20148;-72
2022/01/14 07:36:54;;;;;;;53.67;20.67;;;4.40;99.90;;;;;;5112334;28;20047;-72
2022/01/14 07:39:19;;;;;;;54.90;20.17;;;4.40;99.90;;;;;;5112106;28;20114;-72
2022/01/14 07:41:46;;;;;;;58.77;21.40;;;4.30;99.90;;;;;;5095163;28;20028;-72
2022/01/14 07:44:13;;;;;;;57.13;20.30;;;4.30;99.90;;;;;;5112216;28;20020;-73
2022/01/14 07:46:39;;;;;;;43.77;20.63;;;4.30;99.90;;;;;;5113334;28;20387;-72
2022/01/14 07:49:04;;;;;;;46.77;20.40;;;4.30;99.90;;;;;;5101628;28;20131;-72
2022/01/14 07:51:30;;;;;;;51.80;19.83;;;4.30;99.90;;;;;;5107052;28;20067;-72
2022/01/14 07:53:56;;;;;;;54.97;22.23;;;4.30;99.90;;;;;;5093099;28;20132;-72
2022/01/14 07:56:22;;;;;;;53.90;21.10;;;4.30;99.90;;;;;;5093448;28;20154;-72
2022/01/14 07:58:48;;;;;;;51.67;19.63;;;4.30;99.90;;;;;;5092160;28;20032;-71
2022/01/14 08:01:14;;;;;;;47.10;19.87;;;4.30;99.90;;;;;;5093434;28;20043;-71
2022/01/14 08:03:41;;;;;;;47.50;19.57;;;4.30;99.90;;;;;;5108964;28;20364;-72
2022/01/14 08:06:09;;;;;;;50.50;19.53;;;4.40;99.90;;;;;;5093058;28;20527;-72
2022/01/14 08:08:35;;;;;;;54.50;20.20;;;4.40;99.90;;;;;;5108731;28;20135;-72
2022/01/14 08:11:01;;;;;;;58.57;21.43;;;4.50;99.90;;;;;;5109817;28;20515;-72
2022/01/14 08:13:26;;;;;;;48.23;18.53;;;4.40;99.90;;;;;;5095100;28;20434;-72
2022/01/14 08:15:52;;;;;;;42.70;20.67;;;4.40;99.90;;;;;;5113443;28;20027;-73
2022/01/14 08:18:18;;;;;;;48.70;21.83;;;4.40;99.90;;;;;;5112224;28;20031;-72
2022/01/14 08:20:43;;;;;;;46.47;20.70;;;4.40;99.90;;;;;;5113960;28;20067;-72
2022/01/14 08:23:09;;;;;;;44.00;19.23;;;4.40;99.90;;;;;;5116188;28;20085;-72
2022/01/14 08:25:35;;;;;;;44.00;20.67;;;4.40;99.90;;;;;;5115839;28;20032;-72
2022/01/14 08:28:00;;;;;;;47.60;19.83;;;4.40;99.90;;;;;;5117496;28;20027;-72
2022/01/14 08:30:26;;;;;;;42.57;18.57;;;4.40;99.90;;;;;;5115916;28;20024;-72
2022/01/14 08:32:52;;;;;;;48.23;19.70;;;4.40;99.90;;;;;;5115902;28;20055;-72
2022/01/14 08:35:17;;;;;;;61.70;21.00;;;4.50;99.90;;;;;;5115978;28;20088;-72
2022/01/14 08:37:43;;;;;;;52.70;19.97;;;4.50;99.90;;;;;;5117323;28;20114;-72
2022/01/14 08:40:10;;;;;;;47.03;20.73;;;4.50;99.90;;;;;;5082269;28;20058;-72
2022/01/14 08:42:37;;;;;;;46.83;20.07;;;4.60;99.90;;;;;;5115618;28;20028;-72
2022/01/14 08:45:04;;;;;;;39.67;18.67;;;4.60;99.90;;;;;;5116458;28;20028;-72
2022/01/14 08:47:30;;;;;;;42.47;19.90;;;4.60;99.90;;;;;;5115156;28;20024;-72
2022/01/14 08:49:56;;;;;;;45.53;19.00;;;4.60;99.90;;;;;;5115329;28;20384;-72
2022/01/14 08:52:21;;;;;;;39.47;18.10;;;4.60;99.90;;;;;;5116446;28;20158;-72
2022/01/14 08:54:47;;;;;;;44.87;18.70;;;4.60;99.90;;;;;;5116634;28;20062;-72
2022/01/14 08:57:13;;;;;;;48.10;18.83;;;4.80;99.90;;;;;;5116664;28;20035;-72
2022/01/14 08:59:40;;;;;;;44.70;18.20;;;4.70;99.90;;;;;;5115873;28;20032;-72
2022/01/14 09:02:07;;;;;;;44.27;20.47;;;4.70;99.90;;;;;;5115419;28;20031;-72
2022/01/14 09:04:34;;;;;;;43.93;18.83;;;4.70;99.90;;;;;;5115159;28;20248;-72
2022/01/14 09:07:00;;;;;;;39.97;18.10;;;4.80;99.90;;;;;;5115717;28;20115;-72
2022/01/14 09:09:26;;;;;;;40.73;18.30;;;4.80;99.90;;;;;;5116500;28;20032;-72
2022/01/14 09:11:54;;;;;;;40.77;19.33;;;4.80;99.90;;;;;;5116510;28;20035;-72
2022/01/14 09:14:21;;;;;;;38.37;19.40;;;4.80;99.90;;;;;;5116311;28;20023;-72
2022/01/14 09:16:47;;;;;;;39.57;19.03;;;4.80;99.90;;;;;;5116264;28;20031;-72
2022/01/14 09:19:13;;;;;;;37.90;18.63;;;4.90;99.90;;;;;;5115335;28;20036;-72
2022/01/14 09:21:39;;;;;;;37.03;17.60;;;4.90;99.90;;;;;;5114319;28;20499;-72
2022/01/14 09:24:05;;;;;;;43.10;18.40;;;4.90;99.90;;;;;;5114235;28;20040;-72
2022/01/14 09:26:35;;;;;;;42.03;19.37;;;4.90;99.90;;;;;;5091855;28;20472;-72
2022/01/14 09:29:03;;;;;;;39.10;18.97;;;5.00;99.90;;;;;;5082738;28;20028;-72
2022/01/14 09:31:29;;;;;;;41.93;19.60;;;4.90;99.90;;;;;;5093695;28;20024;-72
2022/01/14 09:33:54;;;;;;;39.00;18.40;;;5.00;99.90;;;;;;5084116;28;20039;-72
2022/01/14 09:36:20;;;;;;;36.20;17.60;;;5.00;99.90;;;;;;5114833;28;20027;-72
2022/01/14 09:38:46;;;;;;;41.73;18.87;;;5.10;99.90;;;;;;5115823;28;20497;-72
2022/01/14 09:41:13;;;;;;;39.13;17.40;;;5.10;99.90;;;;;;5095389;28;20028;-72
2022/01/14 09:43:39;;;;;;;36.83;17.93;;;5.10;99.90;;;;;;5094008;28;20020;-72
2022/01/14 09:46:07;;;;;;;35.77;17.27;;;5.10;99.90;;;;;;5095459;28;20038;-72
2022/01/14 09:48:33;;;;;;;37.50;19.10;;;5.10;99.90;;;;;;5114009;28;20039;-72
2022/01/14 09:50:59;;;;;;;31.73;16.97;;;5.10;99.90;;;;;;5114577;28;20107;-72
2022/01/14 09:53:26;;;;;;;40.63;18.73;;;5.10;99.90;;;;;;5114224;28;20081;-72
2022/01/14 09:55:55;;;;;;;37.03;17.17;;;5.20;99.90;;;;;;5115235;28;20344;-72
2022/01/14 09:58:26;;;;;;;38.50;18.17;;;5.20;99.90;;;;;;5113692;28;20080;-72
2022/01/14 10:01:13;;;;;;;41.60;17.50;;;5.20;99.90;;;;;;5115196;28;20055;-72
2022/01/14 10:04:02;;;;;;;38.70;17.27;;;5.20;99.90;;;;;;5113717;28;20027;-72
2022/01/14 10:06:43;;;;;;;36.57;17.37;;;5.30;99.90;;;;;;5114442;28;20107;-72
2022/01/14 10:09:11;;;;;;;40.83;18.50;;;5.30;99.90;;;;;;5115173;28;20031;-72
2022/01/14 10:11:42;;;;;;;39.53;19.07;;;5.30;99.90;;;;;;5114324;28;20016;-72
2022/01/14 10:14:15;;;;;;;37.73;18.63;;;5.30;99.90;;;;;;5115313;28;20091;-72
2022/01/14 10:16:41;;;;;;;39.90;18.60;;;5.30;99.90;;;;;;5115322;28;20023;-72
2022/01/14 10:19:28;;;;;;;41.37;18.63;;;5.30;99.90;;;;;;5115024;27;20026;-72
2022/01/14 10:21:55;;;;;;;36.30;17.20;;;5.40;99.90;;;;;;5115110;28;20055;-72
2022/01/14 10:24:24;;;;;;;41.80;18.60;;;5.40;99.90;;;;;;5097080;28;20065;-72
2022/01/14 10:26:53;;;;;;;36.40;18.37;;;5.30;99.90;;;;;;5115175;28;20465;-72
2022/01/14 10:29:45;;;;;;;34.50;16.53;;;5.40;99.90;;;;;;5115263;28;20020;-72
2022/01/14 10:32:12;;;;;;;39.97;17.93;;;5.40;99.90;;;;;;5109293;28;20040;-73
2022/01/14 10:34:38;;;;;;;38.53;18.03;;;5.40;99.90;;;;;;5097133;28;20024;-72
2022/01/14 10:37:32;;;;;;;37.33;18.93;;;5.40;99.90;;;;;;5076455;28;20035;-72
2022/01/14 10:39:58;;;;;;;40.72;19.42;;;5.50;99.90;;;;;;5092046;28;20044;-72
2022/01/14 10:42:28;;;;;;;39.90;19.70;;;5.50;99.90;;;;;;5094824;28;20039;-72
2022/01/14 10:44:55;;;;;;;38.90;19.43;;;5.50;99.90;;;;;;5099005;28;20023;-72
2022/01/14 10:47:24;;;;;;;39.47;19.67;;;5.50;99.90;;;;;;5114909;28;20028;-72
2022/01/14 10:49:56;;;;;;;38.77;20.07;;;5.50;99.90;;;;;;5114666;28;20409;-72
2022/01/14 10:52:24;;;;;;;44.07;20.47;;;5.50;99.90;;;;;;5114271;28;20107;-72
2022/01/14 10:54:52;;;;;;;38.40;20.87;;;5.60;99.90;;;;;;5114193;28;20038;-72
2022/01/14 10:57:21;;;;;;;38.23;19.50;;;5.60;99.90;;;;;;5114279;28;20547;-72
2022/01/14 10:59:49;;;;;;;38.07;19.17;;;5.60;99.90;;;;;;5114146;28;20432;-72
2022/01/14 11:02:38;;;;;;;40.27;20.57;;;5.60;99.90;;;;;;5114259;28;20464;-72
2022/01/14 11:05:15;;;;;;;39.10;19.10;;;5.60;99.90;;;;;;5114257;28;20036;-72
2022/01/14 11:07:42;;;;;;;37.00;17.87;;;5.60;99.90;;;;;;5114042;28;20016;-72
2022/01/14 11:10:21;;;;;;;38.70;19.73;;;5.60;99.90;;;;;;5113421;28;20055;-72
2022/01/14 11:12:48;;;;;;;34.13;18.43;;;5.60;99.90;;;;;;5113750;28;20494;-71
2022/01/14 11:15:15;;;;;;;33.60;17.60;;;5.50;99.90;;;;;;5113882;28;20020;-71
2022/01/14 11:17:45;;;;;;;41.30;19.43;;;5.70;99.90;;;;;;5114146;28;20375;-71
2022/01/14 11:20:11;;;;;;;36.87;18.87;;;5.70;99.90;;;;;;5112458;28;20016;-71
2022/01/14 11:25:22;;;;;;;;;;;5.70;99.90;;;;;;5114645;28;20383;-71
2022/01/14 11:27:59;;;;;;;34.43;17.80;;;5.70;99.90;;;;;;5112607;28;19907;-71
2022/01/14 11:30:51;;;;;;;33.40;18.33;;;5.70;99.90;;;;;;5113859;28;20077;-72
2022/01/14 11:33:19;;;;;;;36.17;17.97;;;5.60;99.90;;;;;;5107206;28;20055;-72
2022/01/14 11:35:54;;;;;;;40.67;18.17;;;5.70;99.90;;;;;;5109648;28;20020;-71
2022/01/14 11:38:41;;;;;;;39.70;19.73;;;5.70;99.90;;;;;;5112233;28;20024;-71
2022/01/14 11:41:09;;;;;;;36.33;19.23;;;5.70;99.90;;;;;;5113439;28;20499;-71
2022/01/14 11:43:45;;;;;;;37.70;19.53;;;5.70;99.90;;;;;;5113716;28;20038;-71
2022/01/14 11:46:35;;;;;;;38.70;18.80;;;5.80;99.90;;;;;;5113696;28;20084;-71
2022/01/14 11:49:02;;;;;;;40.33;19.70;;;5.80;99.90;;;;;;5112479;28;20024;-71
2022/01/14 11:51:28;;;;;;;35.70;17.80;;;5.90;99.90;;;;;;5112464;28;20432;-71
2022/01/14 11:54:04;;;;;;;36.67;20.40;;;5.80;99.90;;;;;;5113719;28;20066;-71
2022/01/14 11:56:32;;;;;;;39.63;20.33;;;5.90;99.90;;;;;;5116380;28;20092;-71
2022/01/14 11:59:20;;;;;;;41.00;21.97;;;5.90;99.90;;;;;;5117439;28;20024;-71
2022/01/14 12:01:51;;;;;;;41.23;20.47;;;5.90;99.90;;;;;;5114604;28;20073;-72
2022/01/14 12:04:17;;;;;;;42.23;21.63;;;5.90;99.90;;;;;;5115810;28;20391;-71
2022/01/14 12:06:54;;;;;;;39.43;20.73;;;6.00;99.90;;;;;;5114254;28;20024;-71
2022/01/14 12:09:24;;;;;;;40.07;21.20;;;5.90;99.90;;;;;;5116696;28;20419;-71
2022/01/14 12:12:28;;;;;;;42.37;20.53;;;6.00;99.90;;;;;;5117316;28;20019;-71
2022/01/14 12:14:58;;;;;;;37.63;19.60;;;6.00;99.90;;;;;;5117449;28;20031;-71
2022/01/14 12:17:39;;;;;;;38.40;19.93;;;6.10;99.90;;;;;;5116535;28;20032;-71
2022/01/14 12:20:18;;;;;;;43.47;20.23;;;5.90;99.90;;;;;;5114752;28;20535;-71
2022/01/14 12:23:05;;;;;;;37.13;19.50;;;6.10;99.90;;;;;;5117527;28;20110;-71
2022/01/14 12:25:49;;;;;;;41.77;21.30;;;6.00;99.90;;;;;;5107643;28;20088;-71
2022/01/14 12:28:19;;;;;;;37.92;20.77;;;6.10;99.90;;;;;;5095841;28;20031;-71
2022/01/14 12:31:02;;;;;;;33.80;19.57;;;6.10;99.90;;;;;;5096926;28;20111;-71
2022/01/14 12:33:45;;;;;;;36.10;17.70;;;6.10;99.90;;;;;;5095376;28;20012;-71
2022/01/14 12:36:17;;;;;;;36.00;19.03;;;6.20;99.90;;;;;;5095616;28;20384;-71
2022/01/14 12:38:43;;;;;;;33.67;18.07;;;6.20;99.90;;;;;;5096769;28;20520;-71
2022/01/14 12:41:21;;;;;;;37.07;18.90;;;6.10;99.90;;;;;;5108710;28;20028;-71
2022/01/14 12:43:55;;;;;;;36.00;19.53;;;6.10;99.90;;;;;;5116870;28;20682;-71
2022/01/14 12:46:52;;;;;;;35.03;20.23;;;6.20;99.90;;;;;;5117187;28;20035;-71
2022/01/14 12:49:26;;;;;;;38.23;18.70;;;6.20;99.90;;;;;;5107588;28;20107;-71
2022/01/14 12:52:06;;;;;;;35.10;18.55;;;6.20;99.90;;;;;;5091331;28;20527;-72
2022/01/14 12:54:43;;;;;;;34.73;18.70;;;6.20;99.90;;;;;;5114695;28;20028;-72
2022/01/14 12:57:13;;;;;;;35.20;19.03;;;6.10;99.90;;;;;;5113052;28;20141;-72
2022/01/14 12:59:48;;;;;;;30.63;17.33;;;6.20;99.90;;;;;;5116311;28;20032;-72
2022/01/14 13:02:18;;;;;;;37.93;19.20;;;6.20;99.90;;;;;;5116719;28;20066;-72
2022/01/14 13:04:44;;;;;;;31.73;16.93;;;6.20;99.90;;;;;;5114910;28;20047;-72
2022/01/14 13:07:11;;;;;;;31.30;17.43;;;6.30;99.90;;;;;;5115337;28;20582;-72
2022/01/14 13:09:40;;;;;;;38.20;18.67;;;6.30;99.90;;;;;;5115298;28;20057;-72
2022/01/14 13:12:12;;;;;;;35.77;20.20;;;6.20;99.90;;;;;;5116108;28;20012;-75